Aviation Digital Data Service (ADDS)

Output produced by METARs form (2335 UTC 20 January 2019)
found at http://www.aviationweather.gov/metar/data/
 
METAR text: GAMB 202100Z 02010KT CAVOK 19/02 Q1017
Conditions at: GAMB (MOPTI/BARBE (MIL, ML) observed 2100 UTC 20 January 2019
Temperature: 19.0°C (66°F)
Dewpoint: 2.0°C (36°F) [RH = 32%]
Pressure (altimeter): 30.03 inches Hg (1017.0 mb)
Winds: from the NNE (20 degrees) at 12 MPH (10 knots; 5.1 m/s)
Visibility: 6 or more miles (10+ km)
Ceiling: ceiling and visibility are OK
Clouds: unknown
Weather: no significant weather observed at this time

METAR text: GAMB 201800Z 36010KT CAVOK 25/M06 Q1016
Conditions at: GAMB (MOPTI/BARBE (MIL, ML) observed 1800 UTC 20 January 2019
Temperature: 25.0°C (77°F)
Dewpoint: -6.0°C (21°F) [RH = 12%]
Pressure (altimeter): 30.00 inches Hg (1016.0 mb)
Winds: from the N (360 degrees) at 12 MPH (10 knots; 5.1 m/s)
Visibility: 6 or more miles (10+ km)
Ceiling: ceiling and visibility are OK
Clouds: unknown
Weather: no significant weather observed at this time

METAR text: GAMB 201500Z 36008KT CAVOK 27/M08 Q1015
Conditions at: GAMB (MOPTI/BARBE (MIL, ML) observed 1500 UTC 20 January 2019
Temperature: 27.0°C (81°F)
Dewpoint: -8.0°C (18°F) [RH =  9%]
Pressure (altimeter): 29.97 inches Hg (1015.0 mb)
Winds: from the N (360 degrees) at 9 MPH (8 knots; 4.1 m/s)
Visibility: 6 or more miles (10+ km)
Ceiling: ceiling and visibility are OK
Clouds: unknown
Weather: no significant weather observed at this time

METAR text: GAMB 201200Z 02016KT CAVOK 25/M10 Q1018
Conditions at: GAMB (MOPTI/BARBE (MIL, ML) observed 1200 UTC 20 January 2019
Temperature: 25.0°C (77°F)
Dewpoint: -10.0°C (14°F) [RH =  9%]
Pressure (altimeter): 30.06 inches Hg (1018.0 mb)
Winds: from the NNE (20 degrees) at 18 MPH (16 knots; 8.2 m/s)
Visibility: 6 or more miles (10+ km)
Ceiling: ceiling and visibility are OK
Clouds: unknown
Weather: no significant weather observed at this time

METAR text: GAMB 200900Z 02016KT CAVOK 29/M09 Q1018
Conditions at: GAMB (MOPTI/BARBE (MIL, ML) observed 0900 UTC 20 January 2019
Temperature: 29.0°C (84°F)
Dewpoint: -9.0°C (16°F) [RH =  8%]
Pressure (altimeter): 30.06 inches Hg (1018.0 mb)
Winds: from the NNE (20 degrees) at 18 MPH (16 knots; 8.2 m/s)
Visibility: 6 or more miles (10+ km)
Ceiling: ceiling and visibility are OK
Clouds: unknown
Weather: no significant weather observed at this time

METAR text: GAMB 200600Z 36008KT CAVOK 15/M03 Q1017
Conditions at: GAMB (MOPTI/BARBE (MIL, ML) observed 0600 UTC 20 January 2019
Temperature: 15.0°C (59°F)
Dewpoint: -3.0°C (27°F) [RH = 29%]
Pressure (altimeter): 30.03 inches Hg (1017.0 mb)
Winds: from the N (360 degrees) at 9 MPH (8 knots; 4.1 m/s)
Visibility: 6 or more miles (10+ km)
Ceiling: ceiling and visibility are OK
Clouds: unknown
Weather: no significant weather observed at this time

METAR text: GAMB 200300Z 36010KT 8000 NSC 16/M02 Q1017
Conditions at: GAMB (MOPTI/BARBE (MIL, ML) observed 0300 UTC 20 January 2019
Temperature: 16.0°C (61°F)
Dewpoint: -2.0°C (28°F) [RH = 29%]
Pressure (altimeter): 30.03 inches Hg (1017.0 mb)
Winds: from the N (360 degrees) at 12 MPH (10 knots; 5.1 m/s)
Visibility: 5 miles ( 8 km)
Ceiling: at least 12,000 feet AGL
Clouds: sky clear below 12,000 feet AGL
Weather: no significant weather observed at this time

METAR text: GAMB 200000Z 36006KT 8000 NSC 19/M01 Q1017
Conditions at: GAMB (MOPTI/BARBE (MIL, ML) observed 0000 UTC 20 January 2019
Temperature: 19.0°C (66°F)
Dewpoint: -1.0°C (30°F) [RH = 26%]
Pressure (altimeter): 30.03 inches Hg (1017.0 mb)
Winds: from the N (360 degrees) at 7 MPH (6 knots; 3.1 m/s)
Visibility: 5 miles ( 8 km)
Ceiling: at least 12,000 feet AGL
Clouds: sky clear below 12,000 feet AGL
Weather: no significant weather observed at this time

METAR text: GAMB 192100Z 36010KT 6000 DU NSC 21/M03 Q1017
Conditions at: GAMB (MOPTI/BARBE (MIL, ML) observed 2100 UTC 19 January 2019
Temperature: 21.0°C (70°F)
Dewpoint: -3.0°C (27°F) [RH = 20%]
Pressure (altimeter): 30.03 inches Hg (1017.0 mb)
Winds: from the N (360 degrees) at 12 MPH (10 knots; 5.1 m/s)
Visibility: 4 miles ( 6 km)
Ceiling: at least 12,000 feet AGL
Clouds: sky clear below 12,000 feet AGL
Weather: DU  (widespread dust)

METAR text: GAMB 191800Z 36016KT 5000 NSC 24/M06 Q1016
Conditions at: GAMB (MOPTI/BARBE (MIL, ML) observed 1800 UTC 19 January 2019
Temperature: 24.0°C (75°F)
Dewpoint: -6.0°C (21°F) [RH = 13%]
Pressure (altimeter): 30.00 inches Hg (1016.0 mb)
Winds: from the N (360 degrees) at 18 MPH (16 knots; 8.2 m/s)
Visibility: 3 miles ( 5 km)
Ceiling: at least 12,000 feet AGL
Clouds: sky clear below 12,000 feet AGL
Weather: no significant weather observed at this time

METAR text: GAMB 191500Z 32020KT 5000 NSC 27/M05 Q1016
Conditions at: GAMB (MOPTI/BARBE (MIL, ML) observed 1500 UTC 19 January 2019
Temperature: 27.0°C (81°F)
Dewpoint: -5.0°C (23°F) [RH = 12%]
Pressure (altimeter): 30.00 inches Hg (1016.0 mb)
Winds: from the NW (320 degrees) at 23 MPH (20 knots; 10.3 m/s)
Visibility: 3 miles ( 5 km)
Ceiling: at least 12,000 feet AGL
Clouds: sky clear below 12,000 feet AGL
Weather: no significant weather observed at this time

METAR text: GAMB 191200Z 02018KT 3000N BLDU NSC 25/M04 Q1017
Conditions at: GAMB (MOPTI/BARBE (MIL, ML) observed 1200 UTC 19 January 2019
Temperature: 25.0°C (77°F)
Dewpoint: -4.0°C (25°F) [RH = 14%]
Pressure (altimeter): 30.03 inches Hg (1017.0 mb)
Winds: from the NNE (20 degrees) at 21 MPH (18 knots; 9.3 m/s)
Visibility: 1.86 miles (2.99 km)
Ceiling: at least 12,000 feet AGL
Clouds: sky clear below 12,000 feet AGL
Weather: BLDU  (blowing dust)